createdAt,value
2022-11-26T00:01:31.227Z,8.20
2022-11-26T00:04:03.301Z,10.97
2022-11-26T00:06:35.880Z,9.15
2022-11-26T00:09:05.282Z,7.55
2022-11-26T00:11:39.458Z,13.07
2022-11-26T00:14:17.843Z,8.85
2022-11-26T00:16:48.838Z,8.43
2022-11-26T00:19:16.685Z,9.50
2022-11-26T00:21:44.548Z,9.40
2022-11-26T00:24:27.436Z,10.75
2022-11-26T00:27:00.225Z,9.77
2022-11-26T00:32:00.395Z,9.23
2022-11-26T00:34:33.913Z,9.63
2022-11-26T00:37:01.781Z,8.70
2022-11-26T00:39:32.280Z,7.75
2022-11-26T00:42:00.114Z,10.85
2022-11-26T00:44:28.060Z,10.65
2022-11-26T00:46:58.620Z,8.32
2022-11-26T00:49:28.634Z,9.02
2022-11-26T00:51:56.706Z,8.73
2022-11-26T00:54:24.828Z,9.60
2022-11-26T00:56:54.036Z,8.10
2022-11-26T00:59:23.217Z,6.90
2022-11-26T01:01:51.325Z,9.45
2022-11-26T01:04:19.314Z,8.57
2022-11-26T01:06:47.405Z,8.48
2022-11-26T01:09:21.381Z,7.50
2022-11-26T01:11:53.690Z,8.88
2022-11-26T01:14:22.901Z,9.93
2022-11-26T01:16:54.664Z,10.38
2022-11-26T01:19:22.578Z,9.95
2022-11-26T01:21:50.316Z,9.25
2022-11-26T01:24:18.066Z,9.20
2022-11-26T01:26:46.061Z,7.13
2022-11-26T01:29:21.122Z,7.47
2022-11-26T01:31:49.409Z,5.95
2022-11-26T01:34:18.879Z,7.97
2022-11-26T01:36:46.573Z,8.48
2022-11-26T01:39:19.814Z,8.00
2022-11-26T01:42:18.018Z,8.85
2022-11-26T01:44:45.700Z,6.68
2022-11-26T01:47:27.434Z,10.18
2022-11-26T01:50:31.048Z,8.55
2022-11-26T01:53:13.701Z,8.60
2022-11-26T01:55:46.852Z,7.65
2022-11-26T01:58:19.087Z,6.55
2022-11-26T02:00:49.144Z,6.85
2022-11-26T02:03:18.632Z,8.35
2022-11-26T02:05:56.658Z,7.10
2022-11-26T02:08:28.084Z,6.05
2022-11-26T02:10:58.787Z,7.07
2022-11-26T02:13:48.860Z,6.57
2022-11-26T02:16:29.527Z,5.60
2022-11-26T02:19:29.375Z,6.43
2022-11-26T02:22:07.302Z,6.05
2022-11-26T02:24:49.961Z,7.07
2022-11-26T02:27:37.092Z,4.65
2022-11-26T02:30:08.137Z,7.00
2022-11-26T02:32:52.665Z,7.28
2022-11-26T02:35:37.788Z,5.63
2022-11-26T02:38:09.989Z,7.20
2022-11-26T02:40:37.738Z,5.22
2022-11-26T02:43:05.422Z,6.15
2022-11-26T02:45:38.964Z,6.35
2022-11-26T02:48:11.770Z,8.25
2022-11-26T02:53:12.793Z,6.23
2022-11-26T02:55:45.167Z,6.75
2022-11-26T02:58:13.017Z,8.57
2022-11-26T03:00:44.667Z,10.27
2022-11-26T03:03:24.149Z,7.78
2022-11-26T03:05:56.150Z,8.20
2022-11-26T03:08:24.229Z,10.38
2022-11-26T03:10:52.038Z,11.60
2022-11-26T03:13:19.733Z,9.55
2022-11-26T03:15:47.632Z,9.80
2022-11-26T03:18:16.442Z,11.50
2022-11-26T03:20:44.204Z,12.20
2022-11-26T03:23:11.933Z,10.70
2022-11-26T03:25:39.920Z,11.30
2022-11-26T03:28:08.324Z,11.40
2022-11-26T03:30:36.253Z,12.38
2022-11-26T03:33:06.373Z,9.93
2022-11-26T03:35:34.095Z,8.60
2022-11-26T03:38:01.837Z,10.63
2022-11-26T03:40:32.424Z,8.75
2022-11-26T03:43:00.240Z,8.70
2022-11-26T03:45:27.996Z,8.55
2022-11-26T03:47:55.838Z,10.02
2022-11-26T03:50:23.541Z,8.40
2022-11-26T03:52:51.421Z,6.82
2022-11-26T03:55:19.707Z,9.95
2022-11-26T03:57:47.401Z,8.45
2022-11-26T04:00:15.468Z,8.70
2022-11-26T04:02:43.499Z,9.25
2022-11-26T04:05:12.376Z,7.20
2022-11-26T04:07:41.772Z,7.47
2022-11-26T04:10:12.066Z,6.67
2022-11-26T04:12:40.900Z,7.95
2022-11-26T04:15:09.251Z,10.18
2022-11-26T04:17:36.809Z,7.75
2022-11-26T04:20:05.077Z,8.73
2022-11-26T04:22:32.875Z,6.47
2022-11-26T04:25:00.738Z,7.05
2022-11-26T04:27:28.497Z,6.20
2022-11-26T04:29:56.451Z,6.38
2022-11-26T04:32:26.491Z,5.68
2022-11-26T04:34:54.194Z,5.33
2022-11-26T04:37:21.882Z,7.63
2022-11-26T04:39:49.742Z,6.35
2022-11-26T04:42:17.312Z,7.33
2022-11-26T04:44:45.596Z,6.57
2022-11-26T04:47:13.310Z,7.77
2022-11-26T04:49:41.059Z,9.88
2022-11-26T04:52:09.236Z,8.60
2022-11-26T04:54:37.396Z,9.23
2022-11-26T04:57:05.357Z,9.90
2022-11-26T04:59:33.037Z,9.93
2022-11-26T05:02:00.805Z,8.00
2022-11-26T05:04:29.313Z,9.20
2022-11-26T05:06:57.356Z,11.20
2022-11-26T05:09:25.233Z,10.77
2022-11-26T05:11:52.979Z,9.40
2022-11-26T05:14:20.733Z,8.93
2022-11-26T05:16:48.736Z,7.65
2022-11-26T05:19:16.648Z,8.65
2022-11-26T05:21:44.444Z,7.90
2022-11-26T05:24:12.157Z,7.93
2022-11-26T05:26:39.918Z,8.55
2022-11-26T05:29:07.668Z,9.90
2022-11-26T05:31:37.609Z,8.93
2022-11-26T05:34:05.523Z,8.53
2022-11-26T05:36:33.296Z,10.07
2022-11-26T05:39:01.067Z,9.30
2022-11-26T05:41:29.019Z,9.17
2022-11-26T05:43:57.948Z,9.65
2022-11-26T05:46:28.337Z,9.30
2022-11-26T05:48:58.136Z,10.85
2022-11-26T05:51:29.042Z,11.40
2022-11-26T05:53:56.572Z,9.57
2022-11-26T05:56:24.299Z,8.02
2022-11-26T05:58:54.203Z,8.23
2022-11-26T06:01:21.592Z,7.90
2022-11-26T06:03:49.325Z,10.70
2022-11-26T06:06:17.169Z,6.60
2022-11-26T06:08:44.749Z,7.60
2022-11-26T06:11:14.083Z,8.77
2022-11-26T06:13:41.871Z,10.60
2022-11-26T06:16:11.650Z,7.13
2022-11-26T06:18:41.017Z,10.20
2022-11-26T06:21:09.141Z,10.35
2022-11-26T06:23:51.657Z,8.85
2022-11-26T06:26:22.523Z,8.25
2022-11-26T06:28:50.342Z,9.70
2022-11-26T06:31:18.241Z,6.00
2022-11-26T06:33:45.914Z,6.53
2022-11-26T06:36:13.652Z,6.00
2022-11-26T06:38:41.629Z,6.50
2022-11-26T06:41:10.412Z,6.30
2022-11-26T06:43:38.376Z,7.38
2022-11-26T06:46:09.036Z,5.72
2022-11-26T06:48:37.642Z,7.90
2022-11-26T06:51:08.109Z,5.97
2022-11-26T06:53:36.019Z,6.68
2022-11-26T06:56:07.061Z,7.47
2022-11-26T06:58:34.910Z,6.03
2022-11-26T07:01:10.204Z,6.07
2022-11-26T07:03:39.935Z,6.40
2022-11-26T07:06:18.725Z,7.05
2022-11-26T07:08:49.485Z,7.35
2022-11-26T07:11:17.806Z,8.80
2022-11-26T07:13:47.366Z,8.43
2022-11-26T07:16:15.790Z,5.57
2022-11-26T07:18:44.076Z,7.90
2022-11-26T07:21:13.562Z,9.52
2022-11-26T07:23:42.021Z,9.20
2022-11-26T07:26:11.172Z,8.40
2022-11-26T07:28:39.090Z,7.22
2022-11-26T07:31:16.479Z,10.00
2022-11-26T07:33:45.268Z,7.45
2022-11-26T07:36:19.372Z,7.00
2022-11-26T07:38:47.511Z,10.32
2022-11-26T07:41:18.264Z,13.03
2022-11-26T07:43:46.811Z,8.27
2022-11-26T07:46:18.470Z,8.70
2022-11-26T07:48:49.993Z,8.10
2022-11-26T07:51:36.929Z,10.95
2022-11-26T07:54:06.941Z,9.00
2022-11-26T07:56:34.989Z,10.45
2022-11-26T07:59:02.941Z,9.73
2022-11-26T08:01:33.774Z,10.05
2022-11-26T08:04:01.874Z,11.13
2022-11-26T08:06:30.792Z,9.95
2022-11-26T08:09:02.375Z,10.95
2022-11-26T08:11:33.821Z,8.93
2022-11-26T08:14:04.304Z,13.88
2022-11-26T08:16:34.835Z,10.85
2022-11-26T08:19:07.926Z,13.43
2022-11-26T08:21:35.970Z,13.52
2022-11-26T08:24:05.064Z,10.57
2022-11-26T08:26:37.123Z,15.30
2022-11-26T08:29:07.713Z,15.88
2022-11-26T08:31:39.921Z,12.23
2022-11-26T08:34:14.560Z,12.82
2022-11-26T08:36:47.087Z,13.82
2022-11-26T08:39:17.738Z,15.50
2022-11-26T08:41:51.728Z,13.75
2022-11-26T08:44:23.769Z,16.35
2022-11-26T08:46:51.500Z,12.40
2022-11-26T08:49:25.053Z,11.18
2022-11-26T08:51:53.042Z,13.68
2022-11-26T08:54:20.869Z,11.23
2022-11-26T08:56:48.697Z,14.23
2022-11-26T08:59:17.626Z,14.68
2022-11-26T09:01:47.515Z,14.77
2022-11-26T09:04:15.475Z,13.70
2022-11-26T09:06:43.489Z,13.38
2022-11-26T09:09:14.748Z,15.43
2022-11-26T09:11:52.055Z,13.38
2022-11-26T09:14:23.156Z,13.73
2022-11-26T09:16:57.569Z,12.32
2022-11-26T09:19:25.893Z,12.10
2022-11-26T09:21:53.577Z,13.38
2022-11-26T09:24:21.683Z,16.05
2022-11-26T09:26:50.018Z,12.05
2022-11-26T09:29:24.291Z,11.88
2022-11-26T09:32:22.256Z,13.90
2022-11-26T09:34:43.426Z,12.73
2022-11-26T09:37:11.872Z,15.23
2022-11-26T09:39:39.566Z,13.57
2022-11-26T09:42:29.928Z,11.55
2022-11-26T09:45:22.669Z,13.30
2022-11-26T09:48:00.397Z,16.27
2022-11-26T09:50:32.211Z,11.90
2022-11-26T09:53:16.386Z,12.43
2022-11-26T09:55:48.005Z,13.23
2022-11-26T09:58:42.646Z,13.68
2022-11-26T10:01:21.207Z,14.18
2022-11-26T10:03:49.777Z,12.98
2022-11-26T10:06:43.510Z,13.32
2022-11-26T10:09:32.791Z,11.93
2022-11-26T10:12:26.992Z,11.30
2022-11-26T10:15:21.854Z,11.27
2022-11-26T10:18:18.902Z,15.63
2022-11-26T10:21:01.121Z,12.38
2022-11-26T10:23:51.106Z,13.98
2022-11-26T10:26:35.489Z,14.50
2022-11-26T10:29:26.150Z,12.50
2022-11-26T10:32:07.116Z,11.80
2022-11-26T10:34:58.257Z,13.00
2022-11-26T10:37:41.173Z,12.45
2022-11-26T10:40:30.387Z,13.30
2022-11-26T10:43:18.675Z,13.18
2022-11-26T10:45:51.720Z,14.18
2022-11-26T10:48:35.219Z,13.10
2022-11-26T10:51:15.366Z,13.40
2022-11-26T10:54:16.294Z,14.93
2022-11-26T10:56:54.360Z,14.75
2022-11-26T10:59:27.851Z,13.82
2022-11-26T11:02:02.552Z,15.13
2022-11-26T11:04:35.097Z,14.55
2022-11-26T11:07:11.692Z,13.73
2022-11-26T11:09:39.641Z,15.32
2022-11-26T11:12:18.174Z,15.05
2022-11-26T11:14:47.342Z,14.95
2022-11-26T11:17:31.936Z,16.40
2022-11-26T11:20:19.725Z,16.15
2022-11-26T11:23:01.549Z,15.68
2022-11-26T11:25:32.669Z,16.83
2022-11-26T11:28:11.973Z,15.57
2022-11-26T11:30:42.219Z,17.05
2022-11-26T11:33:20.854Z,16.75
2022-11-26T11:36:06.205Z,16.10
2022-11-26T11:38:51.960Z,15.70
2022-11-26T11:41:32.718Z,15.13
2022-11-26T11:44:08.824Z,16.02
2022-11-26T11:46:59.240Z,14.20
2022-11-26T11:49:49.365Z,13.55
2022-11-26T11:52:30.595Z,14.70
2022-11-26T11:55:33.154Z,13.60
2022-11-26T11:58:26.854Z,14.38
2022-11-26T12:01:07.216Z,12.65
2022-11-26T12:03:59.619Z,15.27
2022-11-26T12:06:45.684Z,14.27
2022-11-26T12:09:41.687Z,13.68
2022-11-26T12:12:25.210Z,15.98
2022-11-26T12:14:59.929Z,15.35
2022-11-26T12:17:41.488Z,17.27
2022-11-26T12:20:39.642Z,19.15
2022-11-26T12:23:28.190Z,14.88
2022-11-26T12:26:12.550Z,18.33
2022-11-26T12:28:54.009Z,20.08
2022-11-26T12:31:31.422Z,16.77
2022-11-26T12:34:23.494Z,19.42
2022-11-26T12:37:15.653Z,21.52
2022-11-26T12:39:54.101Z,13.70
2022-11-26T12:42:47.223Z,19.95
2022-11-26T12:45:41.732Z,17.23
2022-11-26T12:48:37.372Z,16.70
2022-11-26T12:51:33.759Z,15.60
2022-11-26T12:54:21.048Z,17.60
2022-11-26T12:57:02.324Z,16.33
2022-11-26T12:59:48.622Z,16.13
2022-11-26T13:02:26.308Z,16.67
2022-11-26T13:04:55.652Z,16.90
2022-11-26T13:07:46.352Z,19.13
2022-11-26T13:10:34.675Z,18.63
2022-11-26T13:13:22.107Z,18.40
2022-11-26T13:16:07.397Z,20.75
2022-11-26T13:18:39.588Z,17.23
2022-11-26T13:21:35.480Z,17.50
2022-11-26T13:24:42.610Z,17.08
2022-11-26T13:27:30.417Z,15.95
2022-11-26T13:30:17.678Z,17.83
2022-11-26T13:33:11.198Z,20.20
2022-11-26T13:36:16.015Z,17.45
2022-11-26T13:39:14.671Z,14.35
2022-11-26T13:42:06.803Z,20.20
2022-11-26T13:45:04.386Z,18.83
2022-11-26T13:47:55.708Z,15.18
2022-11-26T13:50:34.361Z,17.77
2022-11-26T13:53:12.880Z,16.97
2022-11-26T13:55:49.332Z,19.30
2022-11-26T13:58:29.691Z,21.93
2022-11-26T14:00:58.876Z,20.27
2022-11-26T14:03:46.619Z,16.37
2022-11-26T14:06:18.449Z,17.47
2022-11-26T14:08:50.677Z,20.43
2022-11-26T14:11:55.833Z,19.15
2022-11-26T14:14:36.072Z,18.67
2022-11-26T14:17:15.507Z,20.05
2022-11-26T14:20:01.135Z,20.93
2022-11-26T14:22:39.991Z,19.80
2022-11-26T14:25:14.233Z,20.67
2022-11-26T14:27:59.739Z,21.25
2022-11-26T14:30:28.144Z,20.35
2022-11-26T14:33:08.949Z,24.35
2022-11-26T14:35:39.163Z,20.70
2022-11-26T14:38:22.314Z,19.90
2022-11-26T14:40:58.433Z,22.75
2022-11-26T14:43:27.591Z,22.23
2022-11-26T14:46:14.217Z,21.80
2022-11-26T14:48:58.546Z,20.27
2022-11-26T14:51:28.291Z,24.67
2022-11-26T14:54:03.208Z,21.30
2022-11-26T14:56:43.977Z,20.35
2022-11-26T14:59:20.441Z,24.35
2022-11-26T15:01:48.343Z,21.27
2022-11-26T15:04:40.627Z,21.93
2022-11-26T15:07:12.058Z,24.20
2022-11-26T15:09:42.130Z,20.77
2022-11-26T15:12:17.424Z,22.58
2022-11-26T15:14:55.044Z,21.20
2022-11-26T15:17:31.985Z,18.58
2022-11-26T15:20:11.140Z,22.93
2022-11-26T15:22:50.433Z,20.07
2022-11-26T15:25:25.042Z,21.07
2022-11-26T15:28:01.173Z,20.93
2022-11-26T15:30:32.379Z,20.77
2022-11-26T15:33:05.907Z,22.10
2022-11-26T15:35:38.805Z,22.67
2022-11-26T15:38:21.153Z,23.07
2022-11-26T15:40:59.833Z,22.10
2022-11-26T15:43:45.857Z,22.75
2022-11-26T15:46:21.244Z,21.88
2022-11-26T15:48:56.642Z,21.80
2022-11-26T15:51:36.081Z,24.42
2022-11-26T15:54:06.785Z,26.27
2022-11-26T15:56:39.088Z,26.60
2022-11-26T15:59:16.281Z,22.73
2022-11-26T16:01:47.604Z,24.58
2022-11-26T16:04:39.435Z,21.30
2022-11-26T16:07:09.310Z,24.30
2022-11-26T16:09:39.826Z,23.80
2022-11-26T16:12:32.236Z,22.65
2022-11-26T16:15:15.942Z,23.60
2022-11-26T16:17:49.514Z,24.13
2022-11-26T16:20:30.656Z,22.85
2022-11-26T16:23:01.585Z,22.75
2022-11-26T16:25:35.876Z,27.50
2022-11-26T16:28:09.206Z,26.35
2022-11-26T16:30:39.329Z,23.13
2022-11-26T16:33:08.404Z,22.73
2022-11-26T16:35:46.502Z,24.00
2022-11-26T16:38:23.750Z,25.60
2022-11-26T16:40:52.250Z,25.27
2022-11-26T16:43:20.251Z,23.10
2022-11-26T16:45:58.177Z,22.02
2022-11-26T16:48:27.634Z,21.17
2022-11-26T16:51:01.326Z,21.98
2022-11-26T16:53:29.042Z,23.27
2022-11-26T16:55:59.805Z,25.25
2022-11-26T16:58:36.545Z,24.70
2022-11-26T17:01:05.038Z,23.48
2022-11-26T17:03:33.593Z,23.20
2022-11-26T17:06:03.837Z,23.77
2022-11-26T17:08:37.727Z,22.63
2022-11-26T17:11:05.547Z,25.43
2022-11-26T17:13:33.296Z,24.90
2022-11-26T17:16:03.226Z,26.65
2022-11-26T17:18:34.238Z,24.40
2022-11-26T17:21:04.532Z,29.48
2022-11-26T17:23:32.702Z,22.15
2022-11-26T17:26:01.114Z,26.08
2022-11-26T17:28:28.966Z,23.50
2022-11-26T17:30:57.268Z,25.42
2022-11-26T17:33:27.648Z,25.25
2022-11-26T17:36:00.303Z,25.20
2022-11-26T17:38:33.211Z,24.88
2022-11-26T17:41:09.618Z,30.67
2022-11-26T17:43:43.892Z,23.30
2022-11-26T17:46:21.449Z,26.52
2022-11-26T17:48:58.269Z,26.33
2022-11-26T17:51:29.838Z,29.65
2022-11-26T17:54:00.190Z,28.48
2022-11-26T17:56:28.019Z,24.05
2022-11-26T17:58:57.193Z,28.25
2022-11-26T18:01:25.485Z,24.92
2022-11-26T18:03:57.268Z,28.15
2022-11-26T18:06:52.100Z,27.35
2022-11-26T18:09:24.608Z,26.85
2022-11-26T18:11:58.279Z,24.17
2022-11-26T18:14:27.246Z,25.05
2022-11-26T18:16:57.881Z,24.73
2022-11-26T18:19:30.250Z,23.17
2022-11-26T18:22:01.652Z,25.20
2022-11-26T18:24:32.332Z,24.70
2022-11-26T18:27:00.146Z,23.20
2022-11-26T18:29:30.866Z,24.38
2022-11-26T18:32:01.012Z,23.23
2022-11-26T18:34:31.818Z,24.55
2022-11-26T18:37:00.540Z,23.50
2022-11-26T18:39:28.362Z,23.13
2022-11-26T18:42:29.534Z,24.02
2022-11-26T18:44:55.992Z,23.00
2022-11-26T18:47:23.828Z,23.85
2022-11-26T18:49:51.867Z,26.20
2022-11-26T18:52:19.779Z,28.13
2022-11-26T18:54:47.688Z,24.77
2022-11-26T18:57:18.106Z,20.80
2022-11-26T18:59:47.910Z,27.00
2022-11-26T19:02:22.219Z,24.58
2022-11-26T19:04:50.289Z,24.65
2022-11-26T19:07:18.115Z,26.50
2022-11-26T19:09:54.064Z,23.23
2022-11-26T19:12:22.948Z,27.38
2022-11-26T19:14:53.694Z,23.58
2022-11-26T19:17:27.310Z,25.80
2022-11-26T19:19:55.255Z,25.90
2022-11-26T19:22:30.063Z,26.27
2022-11-26T19:24:58.417Z,25.95
2022-11-26T19:27:26.272Z,27.95
2022-11-26T19:29:54.878Z,27.00
2022-11-26T19:32:24.514Z,26.35
2022-11-26T19:34:53.381Z,27.17
2022-11-26T19:37:21.327Z,24.90
2022-11-26T19:39:56.516Z,25.30
2022-11-26T19:42:29.266Z,24.58
2022-11-26T19:45:01.344Z,25.53
2022-11-26T19:47:35.400Z,26.07
2022-11-26T19:50:03.143Z,27.40
2022-11-26T19:52:31.002Z,28.53
2022-11-26T19:55:02.029Z,24.85
2022-11-26T19:57:34.228Z,27.23
2022-11-26T20:00:05.537Z,21.33
2022-11-26T20:02:33.422Z,23.90
2022-11-26T20:05:08.001Z,24.23
2022-11-26T20:07:37.191Z,23.37
2022-11-26T20:10:07.822Z,22.10
2022-11-26T20:12:35.583Z,21.95
2022-11-26T20:15:03.174Z,25.27
2022-11-26T20:17:34.132Z,22.90
2022-11-26T20:20:04.702Z,25.93
2022-11-26T20:22:36.020Z,23.70
2022-11-26T20:25:04.137Z,23.50
2022-11-26T20:27:31.846Z,22.00
2022-11-26T20:30:01.579Z,20.97
2022-11-26T20:32:30.329Z,24.90
2022-11-26T20:34:58.500Z,23.20
2022-11-26T20:37:26.432Z,22.67
2022-11-26T20:39:55.737Z,25.53
2022-11-26T20:42:23.593Z,23.47
2022-11-26T20:44:52.994Z,23.57
2022-11-26T20:47:22.287Z,23.42
2022-11-26T20:49:55.899Z,24.43
2022-11-26T20:52:27.458Z,21.07
2022-11-26T20:54:56.983Z,20.27
2022-11-26T20:57:30.519Z,20.55
2022-11-26T21:00:01.068Z,21.40
2022-11-26T21:02:28.954Z,20.53
2022-11-26T21:05:01.020Z,22.83
2022-11-26T21:07:31.643Z,23.67
2022-11-26T21:10:01.643Z,22.65
2022-11-26T21:12:29.849Z,23.27
2022-11-26T21:14:58.630Z,22.10
2022-11-26T21:17:31.774Z,21.58
2022-11-26T21:19:59.545Z,20.60
2022-11-26T21:22:35.394Z,20.98
2022-11-26T21:25:06.193Z,20.87
2022-11-26T21:27:35.248Z,21.03
2022-11-26T21:30:05.062Z,18.27
2022-11-26T21:32:35.126Z,18.80
2022-11-26T21:35:02.817Z,21.23
2022-11-26T21:37:31.354Z,21.53
2022-11-26T21:39:59.215Z,19.97
2022-11-26T21:42:28.127Z,20.63
2022-11-26T21:44:55.896Z,22.70
2022-11-26T21:47:28.337Z,19.60
2022-11-26T21:50:01.251Z,21.13
2022-11-26T21:52:31.177Z,20.80
2022-11-26T21:55:03.779Z,21.73
2022-11-26T21:57:36.276Z,23.07
2022-11-26T22:00:06.704Z,22.17
2022-11-26T22:02:34.778Z,23.87
2022-11-26T22:05:02.706Z,23.73
2022-11-26T22:07:33.790Z,27.40
2022-11-26T22:10:01.470Z,23.40
2022-11-26T22:12:33.607Z,22.27
2022-11-26T22:15:01.380Z,24.57
2022-11-26T22:17:31.408Z,21.15
2022-11-26T22:19:59.270Z,25.63
2022-11-26T22:22:28.896Z,21.80
2022-11-26T22:24:59.540Z,21.73
2022-11-26T22:27:27.266Z,21.58
2022-11-26T22:29:57.951Z,22.40
2022-11-26T22:32:29.507Z,24.70
2022-11-26T22:34:57.240Z,25.90
2022-11-26T22:37:25.148Z,20.03
2022-11-26T22:39:55.624Z,22.77
2022-11-26T22:42:25.810Z,21.48
2022-11-26T22:44:53.666Z,20.98
2022-11-26T22:47:24.059Z,22.23
2022-11-26T22:49:55.818Z,20.50
2022-11-26T22:52:23.682Z,22.27
2022-11-26T22:54:51.646Z,19.73
2022-11-26T22:57:25.487Z,22.85
2022-11-26T22:59:57.902Z,20.80
2022-11-26T23:02:27.744Z,21.35
2022-11-26T23:04:55.674Z,20.60
2022-11-26T23:07:25.757Z,21.17
2022-11-26T23:09:53.680Z,21.10
2022-11-26T23:12:21.485Z,19.80
2022-11-26T23:14:49.806Z,22.75
2022-11-26T23:17:20.502Z,20.95
2022-11-26T23:19:48.143Z,21.57
2022-11-26T23:22:17.113Z,25.42
2022-11-26T23:24:45.645Z,21.77
2022-11-26T23:27:13.635Z,19.38
2022-11-26T23:29:41.731Z,21.73
2022-11-26T23:32:09.900Z,21.35
2022-11-26T23:34:40.653Z,17.90
2022-11-26T23:37:08.607Z,20.80
2022-11-26T23:39:36.438Z,20.73
2022-11-26T23:42:04.225Z,23.08
2022-11-26T23:44:32.285Z,20.13
2022-11-26T23:47:06.250Z,21.63
2022-11-26T23:49:34.330Z,19.25
2022-11-26T23:52:02.123Z,21.35
2022-11-26T23:54:31.518Z,21.35
2022-11-26T23:56:59.423Z,20.38
2022-11-26T23:59:27.625Z,18.20
